sensor_id;sensor_type;location;lat;lon;timestamp;pressure;altitude;pressure_sealevel;temperature;humidity
9717;BME280;4897;43.570;27.832;2022-08-03T00:01:44;98952.19;;;20.54;100.00
9717;BME280;4897;43.570;27.832;2022-08-03T00:04:11;98956.63;;;20.62;100.00
9717;BME280;4897;43.570;27.832;2022-08-03T00:06:38;98947.44;;;20.63;100.00
9717;BME280;4897;43.570;27.832;2022-08-03T00:09:06;98952.38;;;20.53;100.00
9717;BME280;4897;43.570;27.832;2022-08-03T00:11:34;98946.94;;;20.53;100.00
9717;BME280;4897;43.570;27.832;2022-08-03T00:14:01;98954.06;;;20.54;100.00
9717;BME280;4897;43.570;27.832;2022-08-03T00:16:31;98952.78;;;20.50;100.00
9717;BME280;4897;43.570;27.832;2022-08-03T00:18:58;98930.16;;;20.43;100.00
9717;BME280;4897;43.570;27.832;2022-08-03T00:21:25;98957.41;;;20.56;100.00
9717;BME280;4897;43.570;27.832;2022-08-03T00:23:52;98939.59;;;20.47;100.00
9717;BME280;4897;43.570;27.832;2022-08-03T00:26:20;98952.72;;;20.43;100.00
9717;BME280;4897;43.570;27.832;2022-08-03T00:28:47;98951.69;;;20.44;100.00
9717;BME280;4897;43.570;27.832;2022-08-03T00:31:14;98951.25;;;20.41;100.00
9717;BME280;4897;43.570;27.832;2022-08-03T00:33:41;98954.81;;;20.41;100.00
9717;BME280;4897;43.570;27.832;2022-08-03T00:36:08;98937.66;;;20.41;100.00
9717;BME280;4897;43.570;27.832;2022-08-03T00:38:35;98931.78;;;20.37;100.00
9717;BME280;4897;43.570;27.832;2022-08-03T00:41:02;98943.94;;;20.41;100.00
9717;BME280;4897;43.570;27.832;2022-08-03T00:43:30;98938.47;;;20.35;100.00
9717;BME280;4897;43.570;27.832;2022-08-03T00:45:57;98943.88;;;20.35;100.00
9717;BME280;4897;43.570;27.832;2022-08-03T00:48:24;98940.47;;;20.26;100.00
9717;BME280;4897;43.570;27.832;2022-08-03T00:50:51;98951.28;;;20.20;100.00
9717;BME280;4897;43.570;27.832;2022-08-03T00:53:19;98949.13;;;20.15;100.00
9717;BME280;4897;43.570;27.832;2022-08-03T00:55:46;98942.41;;;20.11;100.00
9717;BME280;4897;43.570;27.832;2022-08-03T00:58:13;98938.16;;;20.02;100.00
9717;BME280;4897;43.570;27.832;2022-08-03T01:00:41;98931.31;;;19.85;100.00
9717;BME280;4897;43.570;27.832;2022-08-03T01:03:09;98941.97;;;19.86;100.00
9717;BME280;4897;43.570;27.832;2022-08-03T01:05:43;98939.47;;;19.85;100.00
9717;BME280;4897;43.570;27.832;2022-08-03T01:08:20;98924.16;;;19.77;100.00
9717;BME280;4897;43.570;27.832;2022-08-03T01:10:53;98928.66;;;19.70;100.00
9717;BME280;4897;43.570;27.832;2022-08-03T01:13:27;98936.94;;;19.83;100.00
9717;BME280;4897;43.570;27.832;2022-08-03T01:16:04;98943.09;;;19.71;100.00
9717;BME280;4897;43.570;27.832;2022-08-03T01:18:37;98924.03;;;19.64;100.00
9717;BME280;4897;43.570;27.832;2022-08-03T01:21:10;98927.50;;;19.58;100.00
9717;BME280;4897;43.570;27.832;2022-08-03T01:24:01;98952.28;;;19.55;100.00
9717;BME280;4897;43.570;27.832;2022-08-03T01:26:54;98945.25;;;19.40;100.00
9717;BME280;4897;43.570;27.832;2022-08-03T01:32:33;98936.06;;;19.26;100.00
9717;BME280;4897;43.570;27.832;2022-08-03T01:35:03;98923.94;;;19.22;100.00
9717;BME280;4897;43.570;27.832;2022-08-03T01:37:37;98948.97;;;19.24;100.00
9717;BME280;4897;43.570;27.832;2022-08-03T01:40:07;98948.72;;;19.19;100.00
9717;BME280;4897;43.570;27.832;2022-08-03T01:42:36;98950.09;;;19.15;100.00
9717;BME280;4897;43.570;27.832;2022-08-03T01:45:08;98927.44;;;19.01;100.00
9717;BME280;4897;43.570;27.832;2022-08-03T01:47:39;98951.16;;;19.14;100.00
9717;BME280;4897;43.570;27.832;2022-08-03T01:50:08;98949.19;;;19.08;100.00
9717;BME280;4897;43.570;27.832;2022-08-03T01:52:38;98949.00;;;19.09;100.00
9717;BME280;4897;43.570;27.832;2022-08-03T01:55:07;98941.09;;;18.93;100.00
9717;BME280;4897;43.570;27.832;2022-08-03T01:57:37;98947.81;;;18.97;100.00
9717;BME280;4897;43.570;27.832;2022-08-03T02:00:07;98943.03;;;18.85;100.00
9717;BME280;4897;43.570;27.832;2022-08-03T02:02:36;98947.16;;;18.81;100.00
9717;BME280;4897;43.570;27.832;2022-08-03T02:05:06;98953.34;;;18.75;100.00
9717;BME280;4897;43.570;27.832;2022-08-03T02:07:35;98961.72;;;18.80;100.00
9717;BME280;4897;43.570;27.832;2022-08-03T02:10:04;98944.06;;;18.69;100.00
9717;BME280;4897;43.570;27.832;2022-08-03T02:12:33;98950.78;;;18.73;100.00
9717;BME280;4897;43.570;27.832;2022-08-03T02:15:03;98945.84;;;18.77;100.00
9717;BME280;4897;43.570;27.832;2022-08-03T02:17:32;98950.53;;;18.83;100.00
9717;BME280;4897;43.570;27.832;2022-08-03T02:20:00;98955.19;;;18.74;100.00
9717;BME280;4897;43.570;27.832;2022-08-03T02:22:28;98946.97;;;18.68;100.00
9717;BME280;4897;43.570;27.832;2022-08-03T02:24:56;98942.09;;;18.63;100.00
9717;BME280;4897;43.570;27.832;2022-08-03T02:27:25;98965.38;;;18.72;100.00
9717;BME280;4897;43.570;27.832;2022-08-03T02:29:57;98889.41;;;18.36;100.00
9717;BME280;4897;43.570;27.832;2022-08-03T02:32:29;98960.06;;;18.79;100.00
9717;BME280;4897;43.570;27.832;2022-08-03T02:34:59;98955.75;;;18.70;100.00
9717;BME280;4897;43.570;27.832;2022-08-03T02:37:30;98953.97;;;18.77;100.00
9717;BME280;4897;43.570;27.832;2022-08-03T02:40:01;98962.13;;;18.77;100.00
9717;BME280;4897;43.570;27.832;2022-08-03T02:42:29;98956.50;;;18.64;100.00
9717;BME280;4897;43.570;27.832;2022-08-03T02:45:01;98962.22;;;18.69;100.00
9717;BME280;4897;43.570;27.832;2022-08-03T02:47:30;98958.09;;;18.73;100.00
9717;BME280;4897;43.570;27.832;2022-08-03T02:50:01;98959.50;;;18.69;100.00
9717;BME280;4897;43.570;27.832;2022-08-03T02:52:29;98960.31;;;18.69;100.00
9717;BME280;4897;43.570;27.832;2022-08-03T02:54:59;98958.91;;;18.73;100.00
9717;BME280;4897;43.570;27.832;2022-08-03T02:57:29;98946.41;;;18.58;100.00
9717;BME280;4897;43.570;27.832;2022-08-03T02:59:58;98961.06;;;18.63;100.00
9717;BME280;4897;43.570;27.832;2022-08-03T03:02:27;98971.78;;;18.57;100.00
9717;BME280;4897;43.570;27.832;2022-08-03T03:04:54;98963.00;;;18.55;100.00
9717;BME280;4897;43.570;27.832;2022-08-03T03:07:29;98969.03;;;18.65;100.00
9717;BME280;4897;43.570;27.832;2022-08-03T03:09:57;98974.06;;;18.68;100.00
9717;BME280;4897;43.570;27.832;2022-08-03T03:12:25;98950.78;;;18.59;100.00
9717;BME280;4897;43.570;27.832;2022-08-03T03:14:53;98967.13;;;18.80;100.00
9717;BME280;4897;43.570;27.832;2022-08-03T03:17:20;98969.59;;;18.75;100.00
9717;BME280;4897;43.570;27.832;2022-08-03T03:19:48;98974.72;;;18.84;100.00
9717;BME280;4897;43.570;27.832;2022-08-03T03:22:17;98973.31;;;18.74;100.00
9717;BME280;4897;43.570;27.832;2022-08-03T03:24:46;98985.09;;;18.81;100.00
9717;BME280;4897;43.570;27.832;2022-08-03T03:27:14;98982.38;;;18.81;100.00
9717;BME280;4897;43.570;27.832;2022-08-03T03:29:41;98965.84;;;18.76;100.00
9717;BME280;4897;43.570;27.832;2022-08-03T03:32:08;98986.84;;;18.88;100.00
9717;BME280;4897;43.570;27.832;2022-08-03T03:34:36;98997.97;;;18.79;100.00
9717;BME280;4897;43.570;27.832;2022-08-03T03:37:03;98995.63;;;18.90;100.00
9717;BME280;4897;43.570;27.832;2022-08-03T03:39:30;99002.38;;;18.94;100.00
9717;BME280;4897;43.570;27.832;2022-08-03T03:42:00;98999.75;;;19.01;100.00
9717;BME280;4897;43.570;27.832;2022-08-03T03:44:28;98992.28;;;19.03;100.00
9717;BME280;4897;43.570;27.832;2022-08-03T03:46:56;98998.63;;;19.10;100.00
9717;BME280;4897;43.570;27.832;2022-08-03T03:49:23;98997.69;;;19.17;100.00
9717;BME280;4897;43.570;27.832;2022-08-03T03:51:51;98996.91;;;19.24;100.00
9717;BME280;4897;43.570;27.832;2022-08-03T03:54:19;98990.03;;;19.21;100.00
9717;BME280;4897;43.570;27.832;2022-08-03T03:56:46;98985.25;;;19.23;100.00
9717;BME280;4897;43.570;27.832;2022-08-03T03:59:15;98985.72;;;19.27;100.00
9717;BME280;4897;43.570;27.832;2022-08-03T04:01:41;98995.91;;;19.39;100.00
9717;BME280;4897;43.570;27.832;2022-08-03T04:04:09;98990.94;;;19.43;100.00
9717;BME280;4897;43.570;27.832;2022-08-03T04:06:53;98995.53;;;19.42;100.00
9717;BME280;4897;43.570;27.832;2022-08-03T04:09:38;98997.59;;;19.40;100.00
9717;BME280;4897;43.570;27.832;2022-08-03T04:12:25;98990.28;;;19.26;100.00
9717;BME280;4897;43.570;27.832;2022-08-03T04:14:56;98995.06;;;19.24;100.00
9717;BME280;4897;43.570;27.832;2022-08-03T04:17:28;98991.69;;;19.22;100.00
9717;BME280;4897;43.570;27.832;2022-08-03T04:19:56;98989.53;;;19.32;100.00
9717;BME280;4897;43.570;27.832;2022-08-03T04:22:26;98974.03;;;19.26;100.00
9717;BME280;4897;43.570;27.832;2022-08-03T04:25:00;99001.88;;;19.49;100.00
9717;BME280;4897;43.570;27.832;2022-08-03T04:27:33;98981.78;;;19.44;100.00
9717;BME280;4897;43.570;27.832;2022-08-03T04:30:04;98997.38;;;19.56;100.00
9717;BME280;4897;43.570;27.832;2022-08-03T04:32:31;99001.28;;;19.68;100.00
9717;BME280;4897;43.570;27.832;2022-08-03T04:34:58;98995.84;;;19.68;100.00
9717;BME280;4897;43.570;27.832;2022-08-03T04:37:32;99010.22;;;19.83;100.00
9717;BME280;4897;43.570;27.832;2022-08-03T04:40:02;98999.72;;;19.80;100.00
9717;BME280;4897;43.570;27.832;2022-08-03T04:42:32;99000.91;;;19.92;100.00
9717;BME280;4897;43.570;27.832;2022-08-03T04:45:04;99010.22;;;20.05;100.00
9717;BME280;4897;43.570;27.832;2022-08-03T04:47:32;98986.81;;;20.04;100.00
9717;BME280;4897;43.570;27.832;2022-08-03T04:50:00;98987.69;;;20.25;100.00
9717;BME280;4897;43.570;27.832;2022-08-03T04:52:28;98989.41;;;20.33;100.00
9717;BME280;4897;43.570;27.832;2022-08-03T04:54:55;98930.31;;;20.14;100.00
9717;BME280;4897;43.570;27.832;2022-08-03T04:57:22;98994.97;;;20.46;100.00
9717;BME280;4897;43.570;27.832;2022-08-03T04:59:50;98981.47;;;20.59;100.00
9717;BME280;4897;43.570;27.832;2022-08-03T05:02:22;99001.03;;;20.76;100.00
9717;BME280;4897;43.570;27.832;2022-08-03T05:04:52;99009.47;;;20.87;100.00
9717;BME280;4897;43.570;27.832;2022-08-03T05:07:22;99008.00;;;21.12;100.00
9717;BME280;4897;43.570;27.832;2022-08-03T05:09:57;99003.47;;;21.32;100.00
9717;BME280;4897;43.570;27.832;2022-08-03T05:12:25;99003.19;;;21.62;100.00
9717;BME280;4897;43.570;27.832;2022-08-03T05:14:52;98995.16;;;21.88;100.00
9717;BME280;4897;43.570;27.832;2022-08-03T05:17:21;98985.34;;;22.13;100.00
9717;BME280;4897;43.570;27.832;2022-08-03T05:19:48;98991.84;;;22.45;100.00
9717;BME280;4897;43.570;27.832;2022-08-03T05:22:15;98988.31;;;22.70;100.00
9717;BME280;4897;43.570;27.832;2022-08-03T05:24:42;98989.53;;;22.81;100.00
9717;BME280;4897;43.570;27.832;2022-08-03T05:27:09;98987.84;;;22.93;100.00
9717;BME280;4897;43.570;27.832;2022-08-03T05:29:41;98999.72;;;23.25;100.00
9717;BME280;4897;43.570;27.832;2022-08-03T05:32:08;98998.25;;;23.29;100.00
9717;BME280;4897;43.570;27.832;2022-08-03T05:34:37;98958.84;;;23.12;100.00
9717;BME280;4897;43.570;27.832;2022-08-03T05:37:07;98996.44;;;23.67;100.00
9717;BME280;4897;43.570;27.832;2022-08-03T05:39:34;99001.84;;;23.80;100.00
9717;BME280;4897;43.570;27.832;2022-08-03T05:42:02;98999.63;;;23.95;100.00
9717;BME280;4897;43.570;27.832;2022-08-03T05:44:29;98997.50;;;24.04;100.00
9717;BME280;4897;43.570;27.832;2022-08-03T05:46:56;99003.28;;;24.20;100.00
9717;BME280;4897;43.570;27.832;2022-08-03T05:49:23;99006.78;;;24.58;100.00
9717;BME280;4897;43.570;27.832;2022-08-03T05:51:52;99008.22;;;25.28;100.00
9717;BME280;4897;43.570;27.832;2022-08-03T05:54:19;98998.56;;;25.62;100.00
9717;BME280;4897;43.570;27.832;2022-08-03T05:56:45;98990.25;;;26.17;100.00
9717;BME280;4897;43.570;27.832;2022-08-03T05:59:12;98995.47;;;26.59;100.00
9717;BME280;4897;43.570;27.832;2022-08-03T06:01:39;99002.69;;;26.72;100.00
9717;BME280;4897;43.570;27.832;2022-08-03T06:04:06;99004.00;;;27.04;100.00
9717;BME280;4897;43.570;27.832;2022-08-03T06:06:33;98998.84;;;27.19;100.00
9717;BME280;4897;43.570;27.832;2022-08-03T06:09:02;99009.59;;;27.44;100.00
9717;BME280;4897;43.570;27.832;2022-08-03T06:11:29;99010.09;;;27.81;100.00
9717;BME280;4897;43.570;27.832;2022-08-03T06:13:56;98987.22;;;27.63;100.00
9717;BME280;4897;43.570;27.832;2022-08-03T06:16:22;99016.59;;;28.03;100.00
9717;BME280;4897;43.570;27.832;2022-08-03T06:18:49;99016.53;;;27.35;100.00
9717;BME280;4897;43.570;27.832;2022-08-03T06:21:16;99022.16;;;26.52;100.00
9717;BME280;4897;43.570;27.832;2022-08-03T06:23:44;99012.72;;;26.07;100.00
9717;BME280;4897;43.570;27.832;2022-08-03T06:26:13;99024.00;;;25.69;100.00
9717;BME280;4897;43.570;27.832;2022-08-03T06:28:40;99012.91;;;25.46;100.00
9717;BME280;4897;43.570;27.832;2022-08-03T06:31:10;99018.28;;;25.53;100.00
9717;BME280;4897;43.570;27.832;2022-08-03T06:33:36;99010.44;;;25.20;100.00
9717;BME280;4897;43.570;27.832;2022-08-03T06:36:04;99015.00;;;25.26;100.00
9717;BME280;4897;43.570;27.832;2022-08-03T06:38:31;99014.41;;;25.42;100.00
9717;BME280;4897;43.570;27.832;2022-08-03T06:40:58;99031.13;;;25.34;100.00
9717;BME280;4897;43.570;27.832;2022-08-03T06:43:26;99004.19;;;25.31;100.00
9717;BME280;4897;43.570;27.832;2022-08-03T06:45:53;99023.16;;;25.51;100.00
9717;BME280;4897;43.570;27.832;2022-08-03T06:48:20;99018.53;;;25.51;100.00
9717;BME280;4897;43.570;27.832;2022-08-03T06:50:47;99020.78;;;25.72;100.00
9717;BME280;4897;43.570;27.832;2022-08-03T06:53:14;99016.91;;;25.80;100.00
9717;BME280;4897;43.570;27.832;2022-08-03T06:55:41;99013.47;;;25.84;100.00
9717;BME280;4897;43.570;27.832;2022-08-03T06:58:08;99011.59;;;25.96;100.00
9717;BME280;4897;43.570;27.832;2022-08-03T07:00:37;99007.06;;;25.90;100.00
9717;BME280;4897;43.570;27.832;2022-08-03T07:03:04;99012.50;;;26.08;100.00
9717;BME280;4897;43.570;27.832;2022-08-03T07:05:31;99003.31;;;26.03;100.00
9717;BME280;4897;43.570;27.832;2022-08-03T07:07:59;99021.34;;;26.10;100.00
9717;BME280;4897;43.570;27.832;2022-08-03T07:10:27;99012.34;;;26.22;100.00
9717;BME280;4897;43.570;27.832;2022-08-03T07:12:54;99011.63;;;26.26;100.00
9717;BME280;4897;43.570;27.832;2022-08-03T07:15:21;99009.59;;;26.33;100.00
9717;BME280;4897;43.570;27.832;2022-08-03T07:17:50;99002.91;;;26.29;100.00
9717;BME280;4897;43.570;27.832;2022-08-03T07:20:17;99012.84;;;26.30;100.00
9717;BME280;4897;43.570;27.832;2022-08-03T07:22:50;98970.47;;;26.14;100.00
9717;BME280;4897;43.570;27.832;2022-08-03T07:25:18;99015.13;;;26.45;100.00
9717;BME280;4897;43.570;27.832;2022-08-03T07:27:46;99005.91;;;26.39;100.00
9717;BME280;4897;43.570;27.832;2022-08-03T07:30:14;99008.22;;;26.54;100.00
9717;BME280;4897;43.570;27.832;2022-08-03T07:32:41;99029.94;;;26.67;100.00
9717;BME280;4897;43.570;27.832;2022-08-03T07:35:10;99014.94;;;26.69;100.00
9717;BME280;4897;43.570;27.832;2022-08-03T07:37:37;99008.94;;;26.61;100.00
9717;BME280;4897;43.570;27.832;2022-08-03T07:40:05;99016.22;;;26.67;100.00
9717;BME280;4897;43.570;27.832;2022-08-03T07:42:33;99022.13;;;26.82;100.00
9717;BME280;4897;43.570;27.832;2022-08-03T07:45:00;99016.16;;;26.97;100.00
9717;BME280;4897;43.570;27.832;2022-08-03T07:47:28;99033.09;;;26.93;95.91
9717;BME280;4897;43.570;27.832;2022-08-03T07:49:56;99027.41;;;26.95;89.00
9717;BME280;4897;43.570;27.832;2022-08-03T07:52:24;99029.53;;;27.28;85.33
9717;BME280;4897;43.570;27.832;2022-08-03T07:55:09;99002.47;;;27.71;72.89
9717;BME280;4897;43.570;27.832;2022-08-03T07:57:38;99015.56;;;28.98;63.33
9717;BME280;4897;43.570;27.832;2022-08-03T08:00:10;99005.34;;;30.77;53.42
9717;BME280;4897;43.570;27.832;2022-08-03T08:02:38;99016.63;;;31.44;49.58
9717;BME280;4897;43.570;27.832;2022-08-03T08:05:05;99013.44;;;31.67;45.99
9717;BME280;4897;43.570;27.832;2022-08-03T08:07:34;99011.75;;;31.14;48.40
9717;BME280;4897;43.570;27.832;2022-08-03T08:10:01;99014.50;;;31.56;47.03
9717;BME280;4897;43.570;27.832;2022-08-03T08:12:28;99031.63;;;32.20;45.28
9717;BME280;4897;43.570;27.832;2022-08-03T08:14:57;99022.59;;;33.25;41.13
9717;BME280;4897;43.570;27.832;2022-08-03T08:17:24;99023.19;;;33.02;41.53
9717;BME280;4897;43.570;27.832;2022-08-03T08:19:51;99029.31;;;34.03;40.22
9717;BME280;4897;43.570;27.832;2022-08-03T08:22:18;99028.78;;;33.91;39.02
9717;BME280;4897;43.570;27.832;2022-08-03T08:24:46;99046.38;;;34.30;37.94
9717;BME280;4897;43.570;27.832;2022-08-03T08:27:14;99030.69;;;34.11;38.53
9717;BME280;4897;43.570;27.832;2022-08-03T08:29:41;99023.53;;;33.90;38.87
9717;BME280;4897;43.570;27.832;2022-08-03T08:32:08;99014.91;;;33.91;38.83
9717;BME280;4897;43.570;27.832;2022-08-03T08:34:35;99036.13;;;33.47;38.53
9717;BME280;4897;43.570;27.832;2022-08-03T08:37:02;99039.44;;;33.49;39.08
9717;BME280;4897;43.570;27.832;2022-08-03T08:39:29;99029.25;;;33.19;39.67
9717;BME280;4897;43.570;27.832;2022-08-03T08:41:58;99029.25;;;32.64;40.29
9717;BME280;4897;43.570;27.832;2022-08-03T08:44:25;99036.41;;;31.26;42.88
9717;BME280;4897;43.570;27.832;2022-08-03T08:46:52;99041.94;;;30.62;44.37
9717;BME280;4897;43.570;27.832;2022-08-03T08:49:22;99054.16;;;30.71;44.13
9717;BME280;4897;43.570;27.832;2022-08-03T08:51:54;99037.13;;;31.06;42.95
9717;BME280;4897;43.570;27.832;2022-08-03T08:54:22;99025.38;;;32.80;38.49
9717;BME280;4897;43.570;27.832;2022-08-03T08:56:52;99023.69;;;33.49;35.65
9717;BME280;4897;43.570;27.832;2022-08-03T08:59:20;99028.59;;;33.72;35.63
9717;BME280;4897;43.570;27.832;2022-08-03T09:01:48;99041.84;;;34.44;34.55
9717;BME280;4897;43.570;27.832;2022-08-03T09:04:15;99035.88;;;35.33;33.01
9717;BME280;4897;43.570;27.832;2022-08-03T09:06:42;99030.22;;;34.81;33.72
9717;BME280;4897;43.570;27.832;2022-08-03T09:09:10;99029.13;;;35.68;32.11
9717;BME280;4897;43.570;27.832;2022-08-03T09:11:41;99028.47;;;34.90;32.18
9717;BME280;4897;43.570;27.832;2022-08-03T09:14:08;98901.88;;;34.50;32.68
9717;BME280;4897;43.570;27.832;2022-08-03T09:16:36;99015.97;;;35.74;31.74
9717;BME280;4897;43.570;27.832;2022-08-03T09:19:10;99010.63;;;36.01;31.07
9717;BME280;4897;43.570;27.832;2022-08-03T09:21:38;99011.72;;;36.79;30.52
9717;BME280;4897;43.570;27.832;2022-08-03T09:24:06;99009.84;;;37.67;29.80
9717;BME280;4897;43.570;27.832;2022-08-03T09:26:34;99014.69;;;37.02;30.09
9717;BME280;4897;43.570;27.832;2022-08-03T09:29:04;99007.72;;;37.31;30.29
9717;BME280;4897;43.570;27.832;2022-08-03T09:31:33;99018.56;;;37.33;30.08
9717;BME280;4897;43.570;27.832;2022-08-03T09:34:03;99019.56;;;36.59;30.13
9717;BME280;4897;43.570;27.832;2022-08-03T09:36:34;99012.75;;;37.75;29.81
9717;BME280;4897;43.570;27.832;2022-08-03T09:39:03;99002.69;;;37.74;29.79
9717;BME280;4897;43.570;27.832;2022-08-03T09:41:31;99021.84;;;38.08;29.66
9717;BME280;4897;43.570;27.832;2022-08-03T09:43:58;99018.31;;;38.29;28.48
9717;BME280;4897;43.570;27.832;2022-08-03T09:46:25;99004.06;;;37.77;29.10
9717;BME280;4897;43.570;27.832;2022-08-03T09:49:09;99020.84;;;37.17;30.02
9717;BME280;4897;43.570;27.832;2022-08-03T09:51:37;99011.72;;;37.85;28.83
9717;BME280;4897;43.570;27.832;2022-08-03T09:54:04;99011.63;;;38.53;28.47
9717;BME280;4897;43.570;27.832;2022-08-03T09:56:42;99015.25;;;39.11;27.36
9717;BME280;4897;43.570;27.832;2022-08-03T09:59:09;99016.38;;;37.16;29.00
9717;BME280;4897;43.570;27.832;2022-08-03T10:01:37;99012.69;;;37.21;28.54
9717;BME280;4897;43.570;27.832;2022-08-03T10:04:12;98952.00;;;36.67;28.96
9717;BME280;4897;43.570;27.832;2022-08-03T10:06:42;98998.47;;;37.49;28.90
9717;BME280;4897;43.570;27.832;2022-08-03T10:09:11;99014.78;;;38.37;28.32
9717;BME280;4897;43.570;27.832;2022-08-03T10:11:39;99017.69;;;37.37;28.68
9717;BME280;4897;43.570;27.832;2022-08-03T10:14:08;99009.25;;;37.83;29.15
9717;BME280;4897;43.570;27.832;2022-08-03T10:16:36;99008.53;;;37.05;29.03
9717;BME280;4897;43.570;27.832;2022-08-03T10:19:04;99010.13;;;36.92;29.56
9717;BME280;4897;43.570;27.832;2022-08-03T10:21:35;99003.66;;;37.42;29.56
9717;BME280;4897;43.570;27.832;2022-08-03T10:24:04;99000.66;;;37.93;28.59
9717;BME280;4897;43.570;27.832;2022-08-03T10:26:33;99006.91;;;38.62;27.68
9717;BME280;4897;43.570;27.832;2022-08-03T10:29:03;98994.44;;;38.59;27.22
9717;BME280;4897;43.570;27.832;2022-08-03T10:31:37;98997.16;;;37.15;28.64
9717;BME280;4897;43.570;27.832;2022-08-03T10:34:10;98995.06;;;36.74;29.70
9717;BME280;4897;43.570;27.832;2022-08-03T10:36:42;98997.63;;;36.71;29.07
9717;BME280;4897;43.570;27.832;2022-08-03T10:39:11;98998.69;;;36.00;30.07
9717;BME280;4897;43.570;27.832;2022-08-03T10:41:40;98979.56;;;36.68;29.46
9717;BME280;4897;43.570;27.832;2022-08-03T10:44:12;98986.22;;;37.18;29.51
9717;BME280;4897;43.570;27.832;2022-08-03T10:46:40;98961.94;;;36.73;28.46
9717;BME280;4897;43.570;27.832;2022-08-03T10:49:11;98983.38;;;37.64;27.90
9717;BME280;4897;43.570;27.832;2022-08-03T10:51:39;98982.84;;;38.30;27.51
9717;BME280;4897;43.570;27.832;2022-08-03T10:54:39;98997.69;;;38.39;27.94
9717;BME280;4897;43.570;27.832;2022-08-03T10:57:47;98986.22;;;38.63;27.70
9717;BME280;4897;43.570;27.832;2022-08-03T11:00:16;98972.31;;;38.93;27.35
9717;BME280;4897;43.570;27.832;2022-08-03T11:03:09;98986.38;;;39.63;25.99
9717;BME280;4897;43.570;27.832;2022-08-03T11:05:38;98985.44;;;37.72;26.21
9717;BME280;4897;43.570;27.832;2022-08-03T11:08:26;98935.91;;;38.41;25.54
9717;BME280;4897;43.570;27.832;2022-08-03T11:10:59;98985.72;;;38.61;26.10
9717;BME280;4897;43.570;27.832;2022-08-03T11:13:28;98992.09;;;39.19;25.86
9717;BME280;4897;43.570;27.832;2022-08-03T11:16:02;98925.09;;;38.48;26.58
9717;BME280;4897;43.570;27.832;2022-08-03T11:18:29;98974.16;;;38.98;25.93
9717;BME280;4897;43.570;27.832;2022-08-03T11:20:58;98952.69;;;39.46;25.46
9717;BME280;4897;43.570;27.832;2022-08-03T11:23:42;98949.66;;;39.26;26.04
9717;BME280;4897;43.570;27.832;2022-08-03T11:26:15;98962.69;;;38.77;26.82
9717;BME280;4897;43.570;27.832;2022-08-03T11:28:44;98949.53;;;39.39;26.05
9717;BME280;4897;43.570;27.832;2022-08-03T11:31:42;98932.63;;;39.53;25.03
9717;BME280;4897;43.570;27.832;2022-08-03T11:34:10;98968.53;;;38.67;25.30
9717;BME280;4897;43.570;27.832;2022-08-03T11:39:42;98960.50;;;38.52;25.63
9717;BME280;4897;43.570;27.832;2022-08-03T11:45:09;98951.34;;;37.61;26.31
9717;BME280;4897;43.570;27.832;2022-08-03T11:47:38;98951.75;;;37.41;26.25
9717;BME280;4897;43.570;27.832;2022-08-03T11:50:06;98945.47;;;37.49;26.37
9717;BME280;4897;43.570;27.832;2022-08-03T11:52:37;98942.97;;;37.89;25.96
9717;BME280;4897;43.570;27.832;2022-08-03T11:55:15;98945.00;;;38.90;25.30
9717;BME280;4897;43.570;27.832;2022-08-03T11:57:46;98931.69;;;38.96;24.55
9717;BME280;4897;43.570;27.832;2022-08-03T12:00:26;98953.13;;;38.78;24.58
9717;BME280;4897;43.570;27.832;2022-08-03T12:03:02;98953.97;;;39.32;24.55
9717;BME280;4897;43.570;27.832;2022-08-03T12:05:37;98944.97;;;39.52;24.12
9717;BME280;4897;43.570;27.832;2022-08-03T12:08:05;98931.78;;;40.94;23.45
9717;BME280;4897;43.570;27.832;2022-08-03T12:10:33;98923.69;;;41.01;22.55
9717;BME280;4897;43.570;27.832;2022-08-03T12:13:01;98928.72;;;41.16;22.75
9717;BME280;4897;43.570;27.832;2022-08-03T12:15:32;98931.22;;;41.26;21.62
9717;BME280;4897;43.570;27.832;2022-08-03T12:18:03;98948.53;;;41.28;22.04
9717;BME280;4897;43.570;27.832;2022-08-03T12:20:41;98924.84;;;41.00;21.54
9717;BME280;4897;43.570;27.832;2022-08-03T12:23:09;98811.81;;;40.28;21.99
9717;BME280;4897;43.570;27.832;2022-08-03T12:25:38;98946.00;;;42.02;21.19
9717;BME280;4897;43.570;27.832;2022-08-03T12:28:11;98932.47;;;42.66;20.04
9717;BME280;4897;43.570;27.832;2022-08-03T12:30:42;98934.25;;;42.50;20.77
9717;BME280;4897;43.570;27.832;2022-08-03T12:33:14;98942.75;;;42.21;20.41
9717;BME280;4897;43.570;27.832;2022-08-03T12:39:31;98933.22;;;41.64;21.03
9717;BME280;4897;43.570;27.832;2022-08-03T12:41:52;98853.00;;;37.78;24.01
9717;BME280;4897;43.570;27.832;2022-08-03T12:44:28;98923.34;;;38.74;23.69
9717;BME280;4897;43.570;27.832;2022-08-03T12:47:01;98920.34;;;39.23;23.09
9717;BME280;4897;43.570;27.832;2022-08-03T12:49:44;98920.53;;;39.35;23.52
9717;BME280;4897;43.570;27.832;2022-08-03T12:52:11;98913.63;;;39.33;22.89
9717;BME280;4897;43.570;27.832;2022-08-03T12:54:38;98921.66;;;39.65;22.47
9717;BME280;4897;43.570;27.832;2022-08-03T12:57:06;98891.50;;;39.62;22.45
9717;BME280;4897;43.570;27.832;2022-08-03T12:59:35;98925.47;;;39.77;23.14
9717;BME280;4897;43.570;27.832;2022-08-03T13:02:04;98919.13;;;40.20;22.79
9717;BME280;4897;43.570;27.832;2022-08-03T13:04:36;98909.63;;;39.64;22.68
9717;BME280;4897;43.570;27.832;2022-08-03T13:07:05;98906.75;;;40.04;22.99
9717;BME280;4897;43.570;27.832;2022-08-03T13:09:40;98897.22;;;40.39;22.67
9717;BME280;4897;43.570;27.832;2022-08-03T13:12:09;98917.97;;;40.38;22.69
9717;BME280;4897;43.570;27.832;2022-08-03T13:14:37;98911.41;;;40.51;22.93
9717;BME280;4897;43.570;27.832;2022-08-03T13:17:05;98903.69;;;41.11;22.62
9717;BME280;4897;43.570;27.832;2022-08-03T13:19:32;98916.81;;;41.95;21.54
9717;BME280;4897;43.570;27.832;2022-08-03T13:22:06;98904.25;;;40.71;22.44
9717;BME280;4897;43.570;27.832;2022-08-03T13:24:36;98907.91;;;40.54;22.88
9717;BME280;4897;43.570;27.832;2022-08-03T13:27:03;98904.25;;;39.37;23.26
9717;BME280;4897;43.570;27.832;2022-08-03T13:29:32;98906.06;;;39.33;23.57
9717;BME280;4897;43.570;27.832;2022-08-03T13:31:59;98895.56;;;39.39;23.75